Time,TemperatureF,DewpointF,PressureIn,WindDirection,WindDirectionDegrees,WindSpeedMPH,WindSpeedGustMPH,Humidity,HourlyPrecipIn,Conditions,Clouds,dailyrainin,SoftwareType,DateUTC
2013-10-11 10:52:00,62.0,59.0,29.96,NW,309,4.0,9.0,91,0.00,,,0.02,,2013-10-11 14:52:00,
2013-10-11 11:11:00,63.0,60.0,29.96,NW,305,4.0,8.0,91,0.00,,,0.02,,2013-10-11 15:11:00,
2013-10-11 11:22:00,63.0,60.0,29.96,NNE,15,4.0,8.0,90,0.00,,,0.02,,2013-10-11 15:22:00,
2013-10-11 11:44:00,63.0,60.0,29.96,NNW,347,3.0,6.0,90,0.00,,,0.02,,2013-10-11 15:44:00,
2013-10-11 11:54:00,64.0,61.0,29.96,WNW,298,3.0,7.0,90,0.00,,,0.02,,2013-10-11 15:54:00,
2013-10-11 12:13:00,64.0,61.0,29.96,NW,314,4.0,9.0,89,0.00,,,0.02,,2013-10-11 16:13:00,
2013-10-11 12:22:00,64.0,61.0,29.96,NNW,346,3.0,8.0,89,0.00,,,0.02,,2013-10-11 16:22:00,
2013-10-11 12:43:00,64.0,61.0,29.96,North,1,4.0,8.0,89,0.00,,,0.02,,2013-10-11 16:43:00,
2013-10-11 12:53:00,65.0,61.0,29.96,NNE,32,3.0,7.0,88,0.00,,,0.02,,2013-10-11 16:53:00,
2013-10-11 13:12:00,65.0,61.0,29.96,NNW,347,6.0,9.0,87,0.00,,,0.02,,2013-10-11 17:12:00,
2013-10-11 13:22:00,65.0,61.0,29.95,NW,322,3.0,7.0,88,0.00,,,0.02,,2013-10-11 17:22:00,
2013-10-11 13:43:00,66.0,61.0,29.95,NW,321,5.0,10.0,85,0.00,,,0.02,,2013-10-11 17:43:00,
2013-10-11 13:53:00,67.0,62.0,29.94,NW,324,3.0,8.0,85,0.00,,,0.02,,2013-10-11 17:53:00,
2013-10-11 14:12:00,67.0,62.0,29.93,NNW,347,3.0,7.0,84,0.00,,,0.02,,2013-10-11 18:12:00,
2013-10-11 14:22:00,68.0,62.0,29.93,NW,322,4.0,7.0,82,0.00,,,0.02,,2013-10-11 18:22:00,
2013-10-11 14:43:00,68.0,63.0,29.92,NNW,333,2.0,5.0,83,0.00,,,0.02,,2013-10-11 18:43:00,
2013-10-11 14:53:00,68.0,63.0,29.92,NNE,32,2.0,8.0,83,0.00,,,0.02,,2013-10-11 18:53:00,
2013-10-11 15:11:00,68.0,62.0,29.92,North,1,6.0,9.0,82,0.00,,,0.02,,2013-10-11 19:11:00,
2013-10-11 15:22:00,68.0,63.0,29.92,NNW,338,4.0,6.0,83,0.00,,,0.02,,2013-10-11 19:22:00,
2013-10-11 15:42:00,68.0,62.0,29.91,WNW,298,3.0,5.0,82,0.00,,,0.02,,2013-10-11 19:42:00,
2013-10-11 15:52:00,68.0,63.0,29.91,NW,313,2.0,5.0,83,0.00,,,0.02,,2013-10-11 19:52:00,
2013-10-11 16:12:00,68.0,63.0,29.91,North,358,3.0,8.0,83,0.00,,,0.02,,2013-10-11 20:12:00,
2013-10-11 16:22:00,68.0,62.0,29.92,NNW,333,4.0,8.0,82,0.00,,,0.02,,2013-10-11 20:22:00,
2013-10-11 16:53:00,68.0,63.0,29.92,NNW,328,2.0,7.0,84,0.00,,,0.02,,2013-10-11 20:53:00,
2013-10-11 17:22:00,68.0,63.0,29.92,NNW,328,2.0,4.0,85,0.00,,,0.02,,2013-10-11 21:22:00,
2013-10-11 17:55:00,67.0,63.0,29.92,NW,325,2.0,4.0,86,0.00,,,0.02,,2013-10-11 21:55:00,
2013-10-11 18:24:00,65.0,63.0,29.93,North,356,1.0,4.0,92,0.00,,,0.01,,2013-10-11 22:24:00,
2013-10-11 18:43:00,65.0,63.0,29.93,NNW,329,1.0,2.0,93,0.00,,,0.01,,2013-10-11 22:43:00,
2013-10-11 18:54:00,64.0,62.0,29.93,NNW,329,0.0,0.0,94,0.00,,,0.01,,2013-10-11 22:54:00,
2013-10-11 19:12:00,64.0,63.0,29.93,NNW,328,0.0,0.0,95,0.00,,,0.01,,2013-10-11 23:12:00,
2013-10-11 19:22:00,64.0,63.0,29.93,NNW,329,0.0,0.0,95,0.00,,,0.01,,2013-10-11 23:22:00,
2013-10-11 19:53:00,64.0,63.0,29.94,NNW,329,0.0,0.0,96,0.00,,,0.01,,2013-10-11 23:53:00,
2013-10-11 20:12:00,64.0,63.0,29.94,NNW,328,0.0,0.0,96,0.00,,,0.01,,2013-10-12 00:12:00,
2013-10-11 20:22:00,64.0,63.0,29.94,NNW,329,0.0,0.0,97,0.00,,,0.01,,2013-10-12 00:22:00,
2013-10-11 20:42:00,64.0,63.0,29.95,NNW,329,0.0,0.0,97,0.00,,,0.01,,2013-10-12 00:42:00,
2013-10-11 20:53:00,63.0,62.0,29.95,NNW,329,0.0,0.0,97,0.00,,,0.01,,2013-10-12 00:53:00,
2013-10-11 21:11:00,63.0,62.0,29.95,NNW,329,0.0,0.0,97,0.00,,,0.01,,2013-10-12 01:11:00,
2013-10-11 21:22:00,64.0,63.0,29.95,NNW,328,0.0,0.0,97,0.00,,,0.01,,2013-10-12 01:22:00,
2013-10-11 21:42:00,64.0,63.0,29.96,NNW,328,0.0,1.0,97,0.00,,,0.01,,2013-10-12 01:42:00,
2013-10-11 21:52:00,64.0,63.0,29.96,NNW,329,0.0,0.0,97,0.00,,,0.01,,2013-10-12 01:52:00,
2013-10-11 22:12:00,64.0,63.0,29.97,NNW,328,0.0,0.0,97,0.00,,,0.01,,2013-10-12 02:12:00,
2013-10-11 22:23:00,64.0,63.0,29.96,NNW,329,0.0,1.0,97,0.00,,,0.01,,2013-10-12 02:23:00,
2013-10-11 22:42:00,64.0,63.0,29.97,NNW,329,0.0,1.0,97,0.00,,,0.01,,2013-10-12 02:42:00,
2013-10-11 22:52:00,64.0,63.0,29.97,NNW,329,0.0,0.0,97,0.00,,,0.01,,2013-10-12 02:52:00,
2013-10-11 23:12:00,64.0,63.0,29.96,NNW,329,0.0,0.0,97,0.00,,,0.01,,2013-10-12 03:12:00,
2013-10-11 23:23:00,64.0,63.0,29.96,NNW,329,0.0,0.0,97,0.00,,,0.01,,2013-10-12 03:23:00,
2013-10-11 23:44:00,63.0,62.0,29.96,NNW,340,0.0,3.0,96,0.00,,,0.01,,2013-10-12 03:44:00,
2013-10-11 23:54:00,63.0,62.0,29.96,NNE,20,1.0,3.0,96,0.00,,,0.01,,2013-10-12 03:54:00,